Lone Mountain, TN

12:27 AM EST die 31o January, anno 2015 (GMT -0500)
Middlesboro | Change Station
CLOSE
Current Station
Airport
Location: Middlesboro,
Elevation: 1155 ft
Nearby Weather Stations

Elev 1155 ft 36.61 °N, 83.74 °W | Updated 12 minutes ago

Serena
Serena
23 °F
Feels Like 23 °F
N
0
Ventus Variabilis Ventus from Aquilo

Hodie
High -- | Low -- °F
--% Chance of Precip.
Yesterday
High -- | Low -- °F
Precip. -- in
7:36 AM 5:59 PM
Waxing Gibbous, 87% visible
Pressio 30.42 in
Visibilitas 10.0 milia passuum
Clouds Serena
Frigus in quo Ros apparet 19 °F
Umor 85%
Rainfall 0.00 in
Snow Depth Not available.
UV 0 out of 12
Pollen .60 out of 12
Air Quality Not available.
Flu Activity Not available.
METAR K1A6 310515Z AUTO 00000KT 10SM CLR M05/M07 A3042 RMK AO2 T10501071

More Conditions Fewer Conditions

Pressio 30.42 in
Visibilitas 10.0 milia passuum
Clouds Serena
Frigus in quo Ros apparet 19 °F
Umor 85%
Rainfall 0.00 in
Snow Depth Not available.
UV 0 out of 12
Pollen .60 out of 12
Air Quality Not available.
Flu Activity Not available.
METAR K1A6 310515Z AUTO 00000KT 10SM CLR M05/M07 A3042 RMK AO2 T10501071

More Conditions Fewer Conditions

10-Day Weather Forecast

Almanac

Astronomy

Jan. 31, 2015 Rise Set
Actual Time
Civil Twilight
Nautical Twilight
Astronomical Twilight
Moon
Length Of Visible Light
Length of Day
Tomorrow will be .
, % of the Moon is Illuminated

Today's Extremes

State Highs State Lows

Community

WunderPhotos

Upload Photos

1,792,005 photos uploaded!

WunderBlogs® & News

Nearby

Air Quality

  Air Quality AQ Index Pollutant
Not available.

Snow Depth

Station Depth Elevation

Earthquake Activity

City Distance Mag. Time & Date
Minimum magnitude displayed is 2.5.

Coastal Water Temperatures

Locus Calor

Nearby Weather Stations